Time;durP1;ratioP1;P1;durP2;ratioP2;P2;SDS_P1;SDS_P2;PMS_P1;PMS_P2;Temp;Humidity;BMP_temperature;BMP_pressure;BME280_temperature;BME280_humidity;BME280_pressure;Samples;Min_cycle;Max_cycle;Signal;HPM_P1;HPM_P2
2021/09/13 03:14:14;;;;;;;;;;;;;;;5.66;92.17;99719.28;5235306;22;19933;-84
2021/09/13 03:16:40;;;;;;;;;;;;;;;5.63;91.83;99719.34;5035010;28;20375;-82
2021/09/13 03:19:05;;;;;;;;;;;;;;;5.54;92.39;99720.44;5035152;28;19962;-83
2021/09/13 03:21:30;;;;;;;;;;;;;;;5.67;92.06;99720.16;5033536;28;19921;-83
2021/09/13 03:23:56;;;;;;;;;;;;;;;5.56;93.13;99715.16;5034804;28;19975;-84
2021/09/13 03:26:21;;;;;;;;;;;;;;;5.59;93.20;99713.31;5034828;28;19921;-85
2021/09/13 03:28:46;;;;;;;;;;;;;;;5.61;93.07;99711.50;5033463;28;19917;-82
2021/09/13 03:31:11;;;;;;;;;;;;;;;5.53;93.55;99713.47;5034799;28;20390;-84
2021/09/13 03:33:37;;;;;;;;;;;;;;;5.61;93.49;99705.41;5034547;28;19917;-84
2021/09/13 03:36:02;;;;;;;;;;;;;;;5.62;93.31;99702.72;5034593;28;19921;-85
2021/09/13 03:38:28;;;;;;;;;;;;;;;5.62;96.87;99702.72;5034254;28;19917;-84
2021/09/13 03:40:53;;;;;;;;;;;;;;;5.77;99.55;99711.16;5034466;28;20288;-83
2021/09/13 03:43:18;;;;;;;;;;;;;;;5.96;100.00;99712.44;5033270;28;19921;-83
2021/09/13 03:45:43;;;;;;;;;;;;;;;6.23;100.00;99719.69;5034336;28;19928;-84
2021/09/13 03:48:09;;;;;;;;;;;;;;;6.28;100.00;99702.84;5034449;28;19924;-84
2021/09/13 03:50:34;;;;;;;;;;;;;;;6.43;100.00;99705.97;5034280;28;19917;-84
2021/09/13 03:52:59;;;;;;;;;;;;;;;6.38;100.00;99697.34;5034122;28;20249;-84
2021/09/13 03:55:25;;;;;;;;;;;;;;;6.38;100.00;99695.56;5034383;28;19971;-83
2021/09/13 03:57:50;;;;;;;;;;;;;;;6.24;100.00;99703.88;5032862;28;19917;-84
2021/09/13 04:00:15;;;;;;;;;;;;;;;6.26;100.00;99702.03;5032980;28;20009;-84
2021/09/13 04:02:44;;;;;;;;;;;;;;;6.22;100.00;99707.44;5033621;28;19917;-84
2021/09/13 04:05:12;;;;;;;;;;;;;;;6.50;100.00;99702.28;5034243;28;19913;-83
2021/09/13 04:08:33;;;;;;;;;;;;;;;6.93;100.00;99708.97;5032689;28;19960;-84
2021/09/13 04:10:36;;;;;;;;;;;;;;;7.01;100.00;99698.22;5033406;28;19956;-84
2021/09/13 04:13:01;;;;;;;;;;;;;;;6.80;100.00;99700.56;5032214;28;19924;-86
2021/09/13 04:15:26;;;;;;;;;;;;;;;6.77;100.00;99700.66;5032547;28;19921;-86
2021/09/13 04:17:51;;;;;;;;;;;;;;;6.71;100.00;99695.56;5033420;28;19917;-86
2021/09/13 04:20:17;;;;;;;;;;;;;;;6.57;100.00;99697.72;5033849;28;19913;-86
2021/09/13 04:22:42;;;;;;;;;;;;;;;6.46;100.00;99700.63;5033741;28;19917;-86
2021/09/13 04:25:08;;;;;;;;;;;;;;;6.34;100.00;99701.84;5032335;28;20284;-86
2021/09/13 04:27:33;;;;;;;;;;;;;;;6.51;100.00;99710.16;5030923;28;20403;-86
2021/09/13 04:29:58;;;;;;;;;;;;;;;6.36;100.00;99705.28;5032268;28;19924;-87
2021/09/13 04:32:24;;;;;;;;;;;;;;;6.33;100.00;99710.63;5032006;28;19917;-86
2021/09/13 04:34:49;;;;;;;;;;;;;;;6.34;100.00;99709.75;5033381;28;19972;-86
2021/09/13 04:37:15;;;;;;;;;;;;;;;6.33;100.00;99706.25;5032167;28;20331;-86
2021/09/13 04:39:40;;;;;;;;;;;;;;;6.43;100.00;99700.72;5032020;28;19923;-86
2021/09/13 04:42:05;;;;;;;;;;;;;;;6.35;100.00;99708.81;5033300;28;19925;-88
2021/09/13 04:44:30;;;;;;;;;;;;;;;6.38;100.00;99702.63;5030620;28;19917;-87
2021/09/13 04:46:56;;;;;;;;;;;;;;;6.32;100.00;99707.16;5033217;28;19971;-87
2021/09/13 07:55:50;;;;;;;;;;;;;;;5.98;97.58;99779.06;5485177;23;19924;-83
2021/09/13 07:58:16;;;;;;;;;;;;;;;5.94;97.42;99781.75;5055983;28;20008;-85
2021/09/13 08:00:41;;;;;;;;;;;;;;;5.98;97.27;99781.69;5047428;28;20023;-85
2021/09/13 08:03:06;;;;;;;;;;;;;;;6.04;96.84;99780.66;5049026;28;19943;-85
2021/09/13 08:05:32;;;;;;;;;;;;;;;6.10;96.75;99777.88;5051941;28;19920;-86
2021/09/13 08:07:57;;;;;;;;;;;;;;;6.07;97.26;99779.72;5050260;28;19928;-85
2021/09/13 08:10:22;;;;;;;;;;;;;;;6.06;97.30;99776.22;5052675;28;19967;-85
2021/09/13 08:12:47;;;;;;;;;;;;;;;6.05;96.75;99781.50;5051142;28;19966;-86
2021/09/13 08:15:13;;;;;;;;;;;;;;;6.02;97.18;99773.72;5051384;28;19935;-86
2021/09/13 08:17:38;;;;;;;;;;;;;;;6.07;97.47;99774.47;5052146;28;19917;-85
2021/09/13 08:20:04;;;;;;;;;;;;;;;6.03;97.27;99778.94;5048718;28;19929;-86
2021/09/13 08:22:30;;;;;;;;;;;;;;;5.91;98.33;99780.06;5050519;28;19921;-86
2021/09/13 08:24:55;;;;;;;;;;;;;;;6.08;97.62;99782.31;5049918;28;20436;-86
2021/09/13 08:27:21;;;;;;;;;;;;;;;6.00;97.40;99785.13;5050291;28;19928;-86
2021/09/13 08:29:46;;;;;;;;;;;;;;;6.03;97.34;99786.84;5051123;28;19928;-85
2021/09/13 08:32:11;;;;;;;;;;;;;;;6.05;98.28;99782.38;5053119;28;19928;-86
2021/09/13 08:34:37;;;;;;;;;;;;;;;6.07;98.05;99790.25;5049577;28;20015;-86
2021/09/13 08:37:02;;;;;;;;;;;;;;;6.06;97.69;99788.50;5049481;28;20367;-86
2021/09/13 08:39:27;;;;;;;;;;;;;;;6.13;97.12;99792.72;5049939;28;19960;-85
2021/09/13 08:41:53;;;;;;;;;;;;;;;16.41;87.44;99766.41;5051230;28;19921;-78
2021/09/13 08:44:18;;;;;;;;;;;;;;;14.52;71.57;99760.50;5052091;28;19943;-85
2021/09/13 08:49:28;;;;;;;;;;;;;;;7.74;100.00;99779.47;5052193;28;19943;-85
2021/09/13 08:51:53;;;;;;;;;;;;;;;7.16;100.00;99786.47;5051580;28;19924;-85
2021/09/13 08:54:19;;;;;;;;;;;;;;;6.99;100.00;99785.19;5051634;28;19925;-85
2021/09/13 08:56:47;;;;;;;;;;;;;;;6.84;100.00;99777.72;5052231;28;20275;-86
2021/09/13 08:59:14;;;;;;;;;;;;;;;6.82;100.00;99782.16;5052259;28;19925;-85
2021/09/13 09:01:39;;;;;;;;;;;;;;;6.64;98.67;99778.28;5051292;28;19925;-85
2021/09/13 09:04:05;;;;;;;;;;;;;;;6.49;98.19;99782.16;5052715;28;19916;-85
2021/09/13 09:06:31;;;;;;;;;;;;;;;6.54;97.52;99780.25;5050429;28;20283;-85
2021/09/13 09:09:15;;;;;;;;;;;;;;;6.35;97.61;99778.13;5052671;28;19927;-83
2021/09/13 09:11:49;;;;;;;;;;;;;;;6.32;97.71;99787.88;5049889;28;19924;-85
2021/09/13 09:14:34;;;;;;;;;;;;;;;6.23;97.03;99775.81;5051206;28;19944;-85
2021/09/13 09:17:07;;;;;;;;;;;;;;;6.36;97.60;99778.97;5050061;28;19921;-84
2021/09/13 09:19:33;;;;;;;;;;;;;;;6.23;97.28;99782.84;5050789;28;19921;-84
2021/09/13 09:22:16;;;;;;;;;;;;;;;6.20;97.43;99778.50;5050110;28;20402;-84
2021/09/13 09:24:42;;;;;;;;;;;;;;;6.35;97.65;99775.50;5050184;28;19924;-85
2021/09/13 09:27:07;;;;;;;;;;;;;;;6.32;96.95;99770.31;5049796;28;19920;-85
2021/09/13 09:29:36;;;;;;;;;;;;;;;6.30;97.41;99769.50;5051901;28;20011;-85
2021/09/13 09:32:01;;;;;;;;;;;;;;;6.27;97.64;99768.69;5050897;28;20019;-85
2021/09/13 09:34:28;;;;;;;;;;;;;;;6.29;97.29;99773.00;5050322;28;20019;-85
2021/09/13 09:37:05;;;;;;;;;;;;;;;6.28;98.13;99766.00;5049491;28;19921;-84
2021/09/13 09:39:32;;;;;;;;;;;;;;;6.27;97.46;99769.56;5048094;28;19962;-85
2021/09/13 09:41:57;;;;;;;;;;;;;;;6.24;97.49;99768.75;5057139;28;20367;-85
2021/09/13 09:44:24;;;;;;;;;;;;;;;6.25;97.18;99763.47;5050969;28;20024;-85
2021/09/13 09:46:50;;;;;;;;;;;;;;;6.22;97.11;99763.53;5051166;28;19924;-85
2021/09/13 09:49:20;;;;;;;;;;;;;;;6.20;97.30;99769.75;5049327;28;19928;-85
2021/09/13 09:51:49;;;;;;;;;;;;;;;6.18;97.31;99760.13;5049431;28;19920;-85
2021/09/13 09:54:19;;;;;;;;;;;;;;;6.17;97.72;99768.06;5048058;28;19968;-84
2021/09/13 09:57:11;;;;;;;;;;;;;;;6.43;97.58;99748.97;5049302;28;19925;-85
2021/09/13 09:59:37;;;;;;;;;;;;;;;6.26;97.47;99751.19;5044527;28;20401;-85
2021/09/13 10:02:16;;;;;;;;;;;;;;;6.25;97.25;99752.94;5049539;28;20007;-84
2021/09/13 10:04:42;;;;;;;;;;;;;;;6.35;98.72;99756.19;5048290;28;19950;-85
2021/09/13 10:07:12;;;;;;;;;;;;;;;6.46;97.69;99753.28;5048036;28;20428;-85
2021/09/13 10:09:37;;;;;;;;;;;;;;;6.27;97.95;99753.78;5047739;28;19921;-85
2021/09/13 10:12:04;;;;;;;;;;;;;;;6.32;97.88;99749.25;5051228;28;19935;-85
2021/09/13 10:14:30;;;;;;;;;;;;;;;6.28;97.69;99742.34;5049660;28;19963;-84
2021/09/13 10:16:56;;;;;;;;;;;;;;;6.29;97.34;99740.59;5050975;28;19964;-83
2021/09/13 10:19:22;;;;;;;;;;;;;;;6.24;97.89;99738.06;5048532;28;19925;-84
2021/09/13 10:21:48;;;;;;;;;;;;;;;6.24;97.31;99738.06;5048337;28;19967;-84
2021/09/13 10:24:17;;;;;;;;;;;;;;;6.23;97.23;99733.69;5051284;28;20399;-84
2021/09/13 10:26:45;;;;;;;;;;;;;;;6.21;97.31;99727.63;5048657;28;19966;-83
2021/09/13 10:29:10;;;;;;;;;;;;;;;6.26;97.41;99724.88;5050400;28;19971;-84
2021/09/13 10:31:42;;;;;;;;;;;;;;;6.29;98.78;99733.53;5050186;28;19920;-83
2021/09/13 10:34:17;;;;;;;;;;;;;;;6.25;97.68;99729.25;5050099;28;19932;-84
2021/09/13 10:37:00;;;;;;;;;;;;;;;6.24;97.57;99722.28;5050200;28;19917;-83
2021/09/13 10:39:44;;;;;;;;;;;;;;;6.22;97.37;99717.94;5045750;28;19920;-83
2021/09/13 10:42:09;;;;;;;;;;;;;;;6.28;97.86;99717.78;5051328;28;19920;-84
2021/09/13 10:44:36;;;;;;;;;;;;;;;6.24;98.05;99711.75;5048860;28;19929;-84
2021/09/13 10:47:02;;;;;;;;;;;;;;;6.22;97.97;99710.91;5051128;28;19917;-84
2021/09/13 10:49:27;;;;;;;;;;;;;;;6.26;98.27;99709.09;5051293;28;20035;-84
2021/09/13 10:52:21;;;;;;;;;;;;;;;6.28;98.72;99710.75;5050914;28;20019;-84
2021/09/13 10:55:06;;;;;;;;;;;;;;;6.26;97.65;99694.16;5039365;28;19970;-83
2021/09/13 10:57:49;;;;;;;;;;;;;;;6.23;97.62;99704.75;5058073;28;19921;-83
2021/09/13 11:00:14;;;;;;;;;;;;;;;6.31;97.35;99696.66;5050057;28;20299;-82
2021/09/13 11:02:40;;;;;;;;;;;;;;;6.25;97.66;99692.41;5048537;28;19924;-84
2021/09/13 11:05:20;;;;;;;;;;;;;;;6.41;97.88;99692.88;5048473;28;19925;-83
2021/09/13 11:08:05;;;;;;;;;;;;;;;6.28;97.59;99694.09;5043232;28;19966;-83
2021/09/13 11:10:43;;;;;;;;;;;;;;;6.30;96.93;99682.66;5044849;28;20290;-83
2021/09/13 11:13:08;;;;;;;;;;;;;;;6.39;97.04;99683.31;5058532;28;19960;-83
2021/09/13 11:15:33;;;;;;;;;;;;;;;6.31;96.55;99679.09;5053591;28;20399;-83
2021/09/13 11:17:59;;;;;;;;;;;;;;;6.26;96.98;99677.50;5052876;28;19922;-83
2021/09/13 11:20:27;;;;;;;;;;;;;;;6.34;98.93;99665.00;5051276;28;19924;-83
2021/09/13 11:22:52;;;;;;;;;;;;;;;6.39;98.15;99668.38;5052414;28;20420;-83
2021/09/13 11:25:18;;;;;;;;;;;;;;;6.31;97.35;99660.66;5053434;28;20013;-83
2021/09/13 11:27:43;;;;;;;;;;;;;;;6.41;97.44;99663.91;5052738;28;19925;-83
2021/09/13 11:30:09;;;;;;;;;;;;;;;6.33;96.96;99658.88;5054072;28;19916;-84
2021/09/13 11:32:34;;;;;;;;;;;;;;;6.36;97.17;99658.78;5051813;28;19924;-83
2021/09/13 11:34:59;;;;;;;;;;;;;;;6.36;97.57;99658.78;5053230;28;19921;-84
2021/09/13 11:37:26;;;;;;;;;;;;;;;6.35;97.29;99657.06;5053224;28;19921;-84
2021/09/13 11:39:53;;;;;;;;;;;;;;;6.26;97.75;99661.72;5050130;28;19984;-83
2021/09/13 11:42:20;;;;;;;;;;;;;;;6.28;97.36;99666.00;5061024;28;19932;-83
2021/09/13 11:44:45;;;;;;;;;;;;;;;6.30;98.76;99663.34;5049610;28;19925;-84
2021/09/13 11:47:14;;;;;;;;;;;;;;;6.36;97.11;99658.78;5051011;28;19924;-83
2021/09/13 11:49:40;;;;;;;;;;;;;;;6.32;98.72;99656.28;5052478;28;19928;-83
2021/09/13 11:52:08;;;;;;;;;;;;;;;6.28;98.47;99654.63;5058940;28;19921;-82
2021/09/13 11:54:43;;;;;;;;;;;;;;;6.37;97.94;99659.66;5058653;28;20383;-83
2021/09/13 11:57:31;;;;;;;;;;;;;;;6.35;97.13;99650.91;5053883;28;19924;-84
2021/09/13 11:59:58;;;;;;;;;;;;;;;6.32;97.72;99657.16;5049166;28;19928;-84
2021/09/13 12:02:23;;;;;;;;;;;;;;;6.32;97.83;99654.50;5050816;28;19921;-83
2021/09/13 12:04:50;;;;;;;;;;;;;;;6.34;98.06;99650.06;5051881;28;19995;-83
2021/09/13 12:07:15;;;;;;;;;;;;;;;6.39;97.55;99643.81;5060095;28;20345;-83
2021/09/13 12:09:42;;;;;;;;;;;;;;;6.41;97.87;99644.63;5049344;28;19920;-83
2021/09/13 12:12:07;;;;;;;;;;;;;;;6.40;97.92;99648.16;5047366;28;19928;-83
2021/09/13 12:14:34;;;;;;;;;;;;;;;6.32;98.22;99641.34;5046026;28;20371;-83
2021/09/13 12:17:03;;;;;;;;;;;;;;;6.38;97.83;99637.69;5051233;28;19917;-83
2021/09/13 12:19:28;;;;;;;;;;;;;;;6.33;97.75;99635.19;5050745;28;20051;-84
2021/09/13 12:22:00;;;;;;;;;;;;;;;6.43;97.16;99638.44;5043548;28;20023;-84
2021/09/13 12:24:25;;;;;;;;;;;;;;;6.39;97.85;99638.56;5056680;28;19917;-83
2021/09/13 12:26:51;;;;;;;;;;;;;;;6.38;97.42;99642.94;5041206;28;19978;-84
2021/09/13 12:29:16;;;;;;;;;;;;;;;6.41;97.18;99636.75;5042213;28;19923;-83
2021/09/13 12:31:41;;;;;;;;;;;;;;;6.36;97.47;99642.97;5040100;28;19928;-83
2021/09/13 12:34:06;;;;;;;;;;;;;;;6.34;97.54;99638.69;5035181;28;19929;-83
2021/09/13 12:36:32;;;;;;;;;;;;;;;6.32;97.93;99636.09;5040601;28;19917;-83
2021/09/13 12:38:58;;;;;;;;;;;;;;;6.32;97.72;99636.09;5040889;28;19924;-84
2021/09/13 12:41:32;;;;;;;;;;;;;;;6.39;97.59;99639.41;5039688;28;19932;-83
2021/09/13 12:43:58;;;;;;;;;;;;;;;6.40;97.04;99633.25;5040720;28;20265;-83
2021/09/13 12:46:23;;;;;;;;;;;;;;;6.41;97.65;99620.94;5041490;28;19924;-84
2021/09/13 12:48:49;;;;;;;;;;;;;;;6.44;97.01;99623.50;5039786;28;19921;-84
2021/09/13 12:51:16;;;;;;;;;;;;;;;6.47;97.33;99626.03;5040572;28;20082;-83
2021/09/13 12:54:02;;;;;;;;;;;;;;;6.46;97.00;99616.41;5043200;28;19921;-83
2021/09/13 12:56:28;;;;;;;;;;;;;;;6.41;97.75;99618.31;5039348;28;19921;-83
2021/09/13 12:59:12;;;;;;;;;;;;;;;6.41;97.44;99616.53;5040453;28;19965;-83
2021/09/13 13:01:41;;;;;;;;;;;;;;;6.43;97.83;99617.38;5041082;28;20372;-83
2021/09/13 13:04:09;;;;;;;;;;;;;;;6.39;97.89;99606.97;5040882;28;19971;-83
2021/09/13 13:06:35;;;;;;;;;;;;;;;6.43;97.58;99598.06;5041010;28;19921;-83
2021/09/13 13:09:05;;;;;;;;;;;;;;;6.46;97.24;99597.97;5039501;28;19921;-84
2021/09/13 13:11:31;;;;;;;;;;;;;;;6.40;97.29;99595.53;5055954;28;20390;-83
2021/09/13 13:13:57;;;;;;;;;;;;;;;6.45;97.47;99593.66;5041734;28;19925;-83
2021/09/13 13:16:42;;;;;;;;;;;;;;;6.40;98.23;99585.88;5039897;28;19920;-84
2021/09/13 13:19:08;;;;;;;;;;;;;;;6.48;98.10;99583.03;5040268;28;19921;-83
2021/09/13 13:21:34;;;;;;;;;;;;;;;6.40;97.87;99579.72;5040195;28;19953;-83
2021/09/13 13:23:59;;;;;;;;;;;;;;;6.40;97.87;99575.34;5040373;28;20300;-83
2021/09/13 13:26:24;;;;;;;;;;;;;;;6.39;97.86;99570.97;5037860;28;19924;-83
2021/09/13 13:28:50;;;;;;;;;;;;;;;6.51;97.83;99577.66;5040991;28;20277;-83
2021/09/13 13:31:15;;;;;;;;;;;;;;;6.45;97.60;99572.59;5040346;28;19928;-83
2021/09/13 13:33:40;;;;;;;;;;;;;;;6.40;97.60;99569.19;5040457;28;20034;-83
2021/09/13 13:36:05;;;;;;;;;;;;;;;6.40;98.03;99554.28;5039517;28;19940;-83
2021/09/13 13:38:31;;;;;;;;;;;;;;;6.50;97.35;99565.41;5040871;28;19925;-83
2021/09/13 13:40:56;;;;;;;;;;;;;;;6.47;97.64;99560.25;5039667;28;20004;-83
2021/09/13 13:43:21;;;;;;;;;;;;;;;6.33;97.78;99561.50;5040041;28;19920;-83
2021/09/13 13:45:47;;;;;;;;;;;;;;;6.54;98.29;99560.00;5039814;28;19932;-83
2021/09/13 13:48:12;;;;;;;;;;;;;;;6.59;97.79;99564.25;5039842;28;19928;-83
2021/09/13 13:50:40;;;;;;;;;;;;;;;6.47;97.94;99562.88;5040057;28;19932;-83
2021/09/13 13:53:05;;;;;;;;;;;;;;;6.54;98.22;99559.13;5041337;28;19923;-83
2021/09/13 13:55:32;;;;;;;;;;;;;;;6.59;98.85;99554.63;5038541;28;22334;-83
2021/09/13 13:57:58;;;;;;;;;;;;;;;6.51;98.22;99551.31;5037558;28;19928;-83
2021/09/13 14:00:23;;;;;;;;;;;;;;;6.60;98.06;99551.06;5038696;28;19920;-83
2021/09/13 14:02:49;;;;;;;;;;;;;;;6.54;98.00;99553.88;5038265;28;19929;-83
2021/09/13 14:05:14;;;;;;;;;;;;;;;6.49;97.40;99554.03;5039454;28;19964;-83
2021/09/13 14:07:39;;;;;;;;;;;;;;;6.52;97.62;99563.59;5038871;28;19931;-83
2021/09/13 14:10:06;;;;;;;;;;;;;;;6.46;97.41;99556.75;5039684;28;19956;-83
2021/09/13 14:12:31;;;;;;;;;;;;;;;6.44;97.45;99555.91;5039492;28;19927;-83
2021/09/13 14:14:57;;;;;;;;;;;;;;;6.49;97.65;99555.78;5039440;28;20369;-83
2021/09/13 14:17:22;;;;;;;;;;;;;;;6.51;97.88;99561.84;5034987;28;19921;-82
2021/09/13 14:19:47;;;;;;;;;;;;;;;6.42;97.86;99551.63;5041006;28;19944;-82
2021/09/13 14:22:13;;;;;;;;;;;;;;;6.47;98.10;99553.19;5039512;28;19921;-82
2021/09/13 14:24:38;;;;;;;;;;;;;;;6.51;97.62;99551.31;5037933;28;20283;-83
2021/09/13 14:27:04;;;;;;;;;;;;;;;6.52;97.53;99553.06;5040447;28;19944;-83
2021/09/13 14:29:29;;;;;;;;;;;;;;;6.43;97.86;99548.06;5038277;28;19921;-82
2021/09/13 14:31:54;;;;;;;;;;;;;;;6.45;97.88;99541.00;5040933;28;19917;-82
2021/09/13 14:34:20;;;;;;;;;;;;;;;6.45;98.13;99539.22;5039323;28;19921;-83
2021/09/13 14:36:45;;;;;;;;;;;;;;;6.49;98.42;99542.63;5037305;28;19928;-82
2021/09/13 14:39:11;;;;;;;;;;;;;;;6.53;97.94;99541.63;5039480;28;19932;-83
2021/09/13 14:41:36;;;;;;;;;;;;;;;6.55;98.63;99543.28;5038751;28;20272;-83
2021/09/13 14:44:02;;;;;;;;;;;;;;;6.48;98.38;99543.53;5041761;28;20015;-83
2021/09/13 14:46:27;;;;;;;;;;;;;;;6.51;98.07;99546.06;5042229;28;19949;-82
2021/09/13 14:48:52;;;;;;;;;;;;;;;6.52;98.05;99542.53;5044320;28;20390;-82
2021/09/13 14:51:18;;;;;;;;;;;;;;;6.53;98.14;99531.09;5042240;28;20368;-82
2021/09/13 14:53:43;;;;;;;;;;;;;;;6.52;97.93;99542.53;5043793;28;20398;-84
2021/09/13 14:56:08;;;;;;;;;;;;;;;6.59;98.05;99538.81;5043130;28;19929;-82
2021/09/13 14:58:33;;;;;;;;;;;;;;;6.57;97.77;99537.97;5044390;28;19987;-83
2021/09/13 15:00:59;;;;;;;;;;;;;;;6.54;97.96;99538.06;5044038;28;19936;-82
2021/09/13 15:03:24;;;;;;;;;;;;;;;6.61;97.51;99536.13;5041731;28;19925;-83
2021/09/13 15:05:49;;;;;;;;;;;;;;;6.62;97.24;99532.56;5042631;28;19983;-83
2021/09/13 15:08:14;;;;;;;;;;;;;;;6.62;97.21;99543.09;5038713;28;19917;-83
2021/09/13 15:10:40;;;;;;;;;;;;;;;6.57;97.82;99530.09;5042870;28;20356;-82
2021/09/13 15:13:05;;;;;;;;;;;;;;;6.60;97.64;99531.78;5042321;28;20012;-83
2021/09/13 15:15:30;;;;;;;;;;;;;;;6.60;97.98;99530.00;5043253;28;20368;-83
2021/09/13 15:17:55;;;;;;;;;;;;;;;6.65;97.85;99528.09;5041597;28;19921;-82
2021/09/13 15:20:22;;;;;;;;;;;;;;;6.67;97.50;99521.00;5043340;28;20350;-83
2021/09/13 15:22:47;;;;;;;;;;;;;;;6.64;97.60;99522.88;5043345;28;19928;-82
2021/09/13 15:25:13;;;;;;;;;;;;;;;6.57;97.59;99519.56;5041250;28;20363;-83
2021/09/13 15:27:38;;;;;;;;;;;;;;;6.63;97.41;99519.38;5041201;28;19968;-82
2021/09/13 15:30:04;;;;;;;;;;;;;;;6.55;97.78;99521.38;5044315;28;20020;-82
2021/09/13 15:32:29;;;;;;;;;;;;;;;6.54;97.83;99519.66;5059144;28;19986;-82
2021/09/13 15:34:55;;;;;;;;;;;;;;;6.61;98.15;99531.72;5044045;28;20400;-82
2021/09/13 15:37:21;;;;;;;;;;;;;;;6.67;97.64;99518.38;5042180;28;19917;-82
2021/09/13 15:39:47;;;;;;;;;;;;;;;6.63;97.51;99523.78;5042898;28;20287;-82
2021/09/13 15:42:12;;;;;;;;;;;;;;;6.60;98.04;99524.72;5043181;28;19917;-82
2021/09/13 15:44:38;;;;;;;;;;;;;;;6.67;98.22;99521.00;5043104;28;19928;-82
2021/09/13 15:47:03;;;;;;;;;;;;;;;6.64;98.18;99517.63;5037549;28;19936;-82
2021/09/13 15:49:28;;;;;;;;;;;;;;;6.60;98.29;99519.47;5043712;28;19921;-82
2021/09/13 15:51:55;;;;;;;;;;;;;;;6.64;98.15;99518.47;5042317;28;19931;-82
2021/09/13 15:54:21;;;;;;;;;;;;;;;6.66;97.97;99521.91;5042101;28;19921;-82
2021/09/13 15:56:46;;;;;;;;;;;;;;;6.67;98.72;99515.75;5036188;28;20021;-82
2021/09/13 15:59:12;;;;;;;;;;;;;;;6.71;98.76;99512.09;5040700;28;19952;-82
2021/09/13 16:01:37;;;;;;;;;;;;;;;6.65;98.21;99517.56;5043034;28;19921;-82
2021/09/13 16:04:03;;;;;;;;;;;;;;;6.67;98.17;99509.59;5041456;28;19975;-82
2021/09/13 16:06:28;;;;;;;;;;;;;;;6.64;97.88;99507.94;5044148;28;19931;-82
2021/09/13 16:08:53;;;;;;;;;;;;;;;6.68;97.52;99512.19;5042693;28;20426;-82
2021/09/13 16:11:18;;;;;;;;;;;;;;;6.72;97.58;99503.28;5042197;28;19972;-82
2021/09/13 16:13:44;;;;;;;;;;;;;;;6.67;97.39;99501.69;5040938;28;20008;-82
2021/09/13 16:16:10;;;;;;;;;;;;;;;6.70;97.62;99491.94;5041571;28;20001;-81
2021/09/13 16:18:35;;;;;;;;;;;;;;;6.62;98.33;99493.97;5042259;28;19924;-82
2021/09/13 16:21:00;;;;;;;;;;;;;;;6.70;98.21;99496.34;5043437;28;19921;-82
2021/09/13 16:23:26;;;;;;;;;;;;;;;6.73;97.93;99489.22;5043840;28;19924;-83
2021/09/13 16:25:54;;;;;;;;;;;;;;;6.76;97.63;99488.25;5042585;28;19925;-82
2021/09/13 16:28:20;;;;;;;;;;;;;;;6.66;98.44;99495.56;5043523;28;19925;-82
2021/09/13 16:30:45;;;;;;;;;;;;;;;6.64;98.01;99486.88;5043110;28;19974;-82
2021/09/13 16:33:11;;;;;;;;;;;;;;;6.73;98.02;99501.50;5043559;28;19925;-82
2021/09/13 16:35:39;;;;;;;;;;;;;;;6.71;98.33;99501.56;5041386;28;20291;-82
2021/09/13 16:38:05;;;;;;;;;;;;;;;6.73;97.93;99507.66;5041677;28;20435;-82
2021/09/13 16:40:30;;;;;;;;;;;;;;;6.74;97.56;99495.34;5040373;28;20272;-82
2021/09/13 16:42:55;;;;;;;;;;;;;;;6.72;97.54;99497.16;5043105;28;19916;-82
2021/09/13 16:45:20;;;;;;;;;;;;;;;6.75;98.00;99496.19;5043434;28;20335;-82
2021/09/13 16:47:46;;;;;;;;;;;;;;;6.83;97.96;99497.69;5041645;28;19960;-83
2021/09/13 16:50:11;;;;;;;;;;;;;;;6.70;97.88;99494.59;5042975;28;19925;-82
2021/09/13 16:52:36;;;;;;;;;;;;;;;6.73;97.82;99499.75;5042817;28;19967;-82
2021/09/13 16:55:02;;;;;;;;;;;;;;;6.75;97.59;99496.19;5042067;28;19916;-82
2021/09/13 16:57:27;;;;;;;;;;;;;;;6.69;97.89;99487.59;5042737;28;19928;-82
2021/09/13 16:59:52;;;;;;;;;;;;;;;6.66;98.08;99500.84;5042690;28;19917;-82
2021/09/13 17:02:18;;;;;;;;;;;;;;;6.66;98.39;99498.22;5041145;28;19921;-82
2021/09/13 17:04:43;;;;;;;;;;;;;;;6.70;98.68;99498.97;5042694;28;20021;-82
2021/09/13 17:07:08;;;;;;;;;;;;;;;6.82;98.28;99498.59;5042269;28;19932;-82
2021/09/13 17:09:34;;;;;;;;;;;;;;;6.81;97.54;99491.63;5040684;28;19932;-82
2021/09/13 17:11:59;;;;;;;;;;;;;;;6.76;98.15;99488.25;5042494;28;19917;-82
2021/09/13 17:14:24;;;;;;;;;;;;;;;6.71;97.93;99485.75;5042176;28;19992;-82
2021/09/13 17:16:51;;;;;;;;;;;;;;;6.78;97.74;99488.19;5042932;28;19924;-82
2021/09/13 17:19:17;;;;;;;;;;;;;;;6.70;97.84;99484.06;5042616;28;19917;-82
2021/09/13 17:21:43;;;;;;;;;;;;;;;6.80;97.42;99486.41;5042195;28;20445;-82
2021/09/13 17:24:08;;;;;;;;;;;;;;;6.75;97.76;99483.03;5042390;28;19924;-82
2021/09/13 17:26:33;;;;;;;;;;;;;;;6.69;97.67;99476.19;5039548;28;19925;-82
2021/09/13 17:28:59;;;;;;;;;;;;;;;6.75;98.17;99480.38;5042410;28;19916;-82
2021/09/13 17:31:24;;;;;;;;;;;;;;;6.77;97.92;99479.44;5042966;28;19932;-82
2021/09/13 17:33:49;;;;;;;;;;;;;;;6.71;98.40;99483.13;5042149;28;20019;-82
2021/09/13 17:36:16;;;;;;;;;;;;;;;6.77;98.36;99478.59;5043163;28;19964;-81
2021/09/13 17:38:42;;;;;;;;;;;;;;;6.71;98.40;99477.84;5041043;28;19935;-82
2021/09/13 17:41:08;;;;;;;;;;;;;;;6.71;98.31;99480.50;5040747;28;20360;-82
2021/09/13 17:43:34;;;;;;;;;;;;;;;6.73;98.57;99475.16;5042376;28;19920;-82
2021/09/13 17:46:01;;;;;;;;;;;;;;;6.75;99.08;99476.00;5041983;28;19917;-82
2021/09/13 17:48:30;;;;;;;;;;;;;;;6.82;98.14;99480.16;5042018;28;19921;-82
2021/09/13 17:50:55;;;;;;;;;;;;;;;6.71;98.36;99477.00;5041265;28;20573;-82
2021/09/13 17:53:20;;;;;;;;;;;;;;;6.72;98.50;99486.63;5042089;28;19924;-81
2021/09/13 17:55:46;;;;;;;;;;;;;;;6.77;98.46;99483.84;5040786;28;19921;-82
2021/09/13 17:58:11;;;;;;;;;;;;;;;6.75;98.73;99477.75;5042003;28;20296;-81
2021/09/13 18:00:36;;;;;;;;;;;;;;;6.69;98.82;99486.72;5041678;28;19974;-82
2021/09/13 18:03:02;;;;;;;;;;;;;;;6.73;99.02;99489.22;5041906;28;20288;-82
2021/09/13 18:05:27;;;;;;;;;;;;;;;6.76;98.94;99488.25;5042030;28;19920;-81
2021/09/13 18:07:52;;;;;;;;;;;;;;;6.77;98.61;99489.13;5041402;28;19917;-82
2021/09/13 18:10:18;;;;;;;;;;;;;;;6.78;98.69;99485.56;5040922;28;19916;-82
2021/09/13 18:12:43;;;;;;;;;;;;;;;6.70;98.70;99493.69;5041462;28;19917;-82
2021/09/13 18:15:08;;;;;;;;;;;;;;;6.75;98.46;99490.94;5041505;28;19924;-81
2021/09/13 18:17:34;;;;;;;;;;;;;;;6.83;98.17;99491.53;5041955;28;20392;-82
2021/09/13 18:19:59;;;;;;;;;;;;;;;6.76;98.70;99493.50;5042067;28;20326;-82
2021/09/13 18:22:24;;;;;;;;;;;;;;;6.74;98.53;99495.34;5045621;28;19975;-82
2021/09/13 18:24:49;;;;;;;;;;;;;;;6.73;98.77;99497.13;5044315;28;19963;-82
2021/09/13 18:27:15;;;;;;;;;;;;;;;6.79;98.38;99503.09;5046050;28;20360;-82
2021/09/13 18:29:40;;;;;;;;;;;;;;;6.82;98.07;99505.63;5045855;28;19952;-82
2021/09/13 18:32:08;;;;;;;;;;;;;;;6.84;98.02;99501.16;5045473;28;19917;-81
2021/09/13 18:34:33;;;;;;;;;;;;;;;6.80;98.12;99504.84;5045581;28;19917;-82
2021/09/13 18:36:59;;;;;;;;;;;;;;;6.84;97.96;99502.03;5045459;28;20405;-82
2021/09/13 18:39:24;;;;;;;;;;;;;;;6.70;98.06;99515.66;5044484;28;19944;-81
2021/09/13 18:41:49;;;;;;;;;;;;;;;6.77;98.26;99507.56;5045745;28;20338;-82
2021/09/13 18:44:14;;;;;;;;;;;;;;;6.77;98.16;99512.81;5045319;28;20016;-82
2021/09/13 18:46:40;;;;;;;;;;;;;;;6.77;97.73;99510.19;5045617;28;19939;-82
2021/09/13 18:49:05;;;;;;;;;;;;;;;6.75;97.88;99518.13;5045279;28;20008;-81
2021/09/13 18:51:30;;;;;;;;;;;;;;;6.89;97.46;99517.69;5045536;28;19916;-82
2021/09/13 18:53:55;;;;;;;;;;;;;;;6.75;98.09;99515.50;5044919;28;19963;-82
2021/09/13 18:56:21;;;;;;;;;;;;;;;6.72;98.13;99523.50;5043855;28;19924;-81
2021/09/13 18:58:46;;;;;;;;;;;;;;;6.71;98.34;99524.41;5045042;28;20455;-82
2021/09/13 19:01:12;;;;;;;;;;;;;;;6.71;98.17;99535.78;5043929;28;19917;-82
2021/09/13 19:03:37;;;;;;;;;;;;;;;6.66;98.78;99529.81;5045543;28;19923;-82
2021/09/13 19:06:03;;;;;;;;;;;;;;;6.68;98.60;99533.25;5045658;28;20671;-82
2021/09/13 19:08:28;;;;;;;;;;;;;;;6.72;98.40;99536.66;5044670;28;19916;-82
2021/09/13 19:10:53;;;;;;;;;;;;;;;6.69;98.26;99540.25;5043921;28;19932;-82
2021/09/13 19:13:18;;;;;;;;;;;;;;;6.75;97.75;99543.59;5044597;28;19917;-82
2021/09/13 19:15:44;;;;;;;;;;;;;;;6.65;98.25;99543.00;5044664;28;19979;-82